Time;durP1;ratioP1;P1;durP2;ratioP2;P2;SDS_P1;SDS_P2;PMS_P1;PMS_P2;Temp;Humidity;BMP_temperature;BMP_pressure;BME280_temperature;BME280_humidity;BME280_pressure;Samples;Min_cycle;Max_cycle;Signal;HPM_P1;HPM_P2
2023/08/19 04:01:56;;;;;;;8.43;5.13;;;19.50;97.30;;;;;;5387571;23;20521;-89
2023/08/19 04:04:21;;;;;;;6.30;4.27;;;19.60;97.30;;;;;;4975966;28;20433;-89
2023/08/19 04:06:47;;;;;;;3.70;3.50;;;19.50;97.30;;;;;;4967881;28;20274;-91
2023/08/19 04:09:15;;;;;;;3.43;2.70;;;19.50;97.30;;;;;;4985615;28;20237;-88
2023/08/19 04:11:50;;;;;;;6.53;4.57;;;19.50;97.30;;;;;;4969250;28;20216;-89
2023/08/19 04:14:18;;;;;;;4.77;3.00;;;19.50;97.30;;;;;;4968261;28;20945;-89
2023/08/19 04:16:44;;;;;;;4.90;3.43;;;19.50;97.30;;;;;;4967951;28;20421;-89
2023/08/19 04:19:10;;;;;;;6.33;4.67;;;19.50;97.30;;;;;;4959961;28;20517;-88
2023/08/19 04:21:35;;;;;;;14.60;3.00;;;19.40;97.30;;;;;;4968203;28;20229;-89
2023/08/19 04:24:01;;;;;;;6.30;2.90;;;19.40;97.30;;;;;;4966787;28;20197;-89
2023/08/19 04:26:26;;;;;;;3.63;2.80;;;19.40;97.30;;;;;;4968837;28;20413;-87
2023/08/19 04:28:52;;;;;;;4.37;2.47;;;19.40;97.30;;;;;;4960269;28;20680;-88
2023/08/19 04:31:18;;;;;;;7.00;3.87;;;19.40;97.30;;;;;;4972728;28;20202;-89
2023/08/19 04:33:43;;;;;;;8.20;4.57;;;19.40;97.30;;;;;;4981667;28;20686;-88
2023/08/19 04:36:09;;;;;;;5.13;3.73;;;19.40;97.30;;;;;;4966196;28;20413;-90
2023/08/19 04:38:34;;;;;;;5.37;3.47;;;19.40;97.30;;;;;;4967725;28;20182;-89
2023/08/19 04:41:00;;;;;;;9.37;4.87;;;19.40;97.30;;;;;;4967286;28;20217;-89
2023/08/19 04:43:27;;;;;;;11.17;4.30;;;19.40;97.30;;;;;;4971257;28;20183;-89
2023/08/19 04:45:54;;;;;;;7.03;3.63;;;19.40;97.30;;;;;;4963964;28;20236;-89
2023/08/19 04:48:20;;;;;;;5.83;3.27;;;19.40;97.30;;;;;;4967809;28;20429;-91
2023/08/19 04:50:46;;;;;;;5.50;2.70;;;19.40;97.30;;;;;;4968123;28;20437;-89
2023/08/19 04:53:11;;;;;;;10.50;4.30;;;19.40;97.30;;;;;;4971870;28;20965;-89
2023/08/19 04:55:37;;;;;;;4.37;3.77;;;19.50;97.30;;;;;;4985796;28;20181;-89
2023/08/19 04:58:10;;;;;;;6.60;3.90;;;19.50;97.30;;;;;;4974466;28;20185;-88
2023/08/19 05:00:38;;;;;;;3.40;3.20;;;19.50;97.30;;;;;;4975539;28;20177;-88
2023/08/19 05:03:07;;;;;;;2.87;2.70;;;19.60;97.30;;;;;;4975595;28;20484;-89
2023/08/19 05:05:32;;;;;;;3.70;2.50;;;19.60;97.30;;;;;;4975528;28;20427;-90
2023/08/19 05:07:58;;;;;;;4.80;4.50;;;19.60;97.30;;;;;;4974407;28;20429;-89
2023/08/19 05:10:23;;;;;;;4.90;2.00;;;19.70;97.30;;;;;;4974907;28;20578;-89
2023/08/19 05:12:49;;;;;;;6.60;6.20;;;19.70;97.30;;;;;;4966871;28;20656;-89
2023/08/19 05:15:17;;;;;;;5.00;3.40;;;19.70;97.30;;;;;;4976302;28;20174;-89
2023/08/19 05:17:42;;;;;;;4.77;2.60;;;19.80;97.30;;;;;;4974700;28;20178;-88
2023/08/19 05:20:08;;;;;;;4.87;2.70;;;19.80;97.30;;;;;;4974708;28;20443;-89
2023/08/19 05:22:34;;;;;;;7.97;4.87;;;19.80;97.30;;;;;;4970238;28;20229;-88
2023/08/19 05:25:00;;;;;;;5.47;3.47;;;19.80;97.30;;;;;;4963544;28;20190;-88
2023/08/19 05:27:25;;;;;;;4.87;4.40;;;19.80;97.30;;;;;;4970975;28;20422;-88
2023/08/19 05:29:51;;;;;;;17.40;4.47;;;19.80;97.30;;;;;;4962389;28;20280;-89
2023/08/19 05:32:17;;;;;;;10.13;5.30;;;19.90;97.30;;;;;;4974519;28;20204;-91
2023/08/19 05:34:42;;;;;;;2.93;2.67;;;19.90;97.30;;;;;;4974948;28;20716;-88
2023/08/19 05:37:08;;;;;;;6.00;3.97;;;19.90;97.30;;;;;;4966780;28;20575;-88
2023/08/19 05:39:36;;;;;;;7.80;5.47;;;19.90;97.30;;;;;;4967130;28;20228;-87
2023/08/19 05:42:04;;;;;;;7.80;4.90;;;20.00;97.30;;;;;;4974847;28;20253;-89
2023/08/19 05:44:29;;;;;;;5.83;3.03;;;20.00;97.30;;;;;;4992833;28;20431;-89
2023/08/19 05:46:55;;;;;;;7.90;3.10;;;20.00;97.30;;;;;;4974836;28;20425;-90
2023/08/19 05:49:21;;;;;;;5.17;3.87;;;20.00;97.30;;;;;;4989482;28;20249;-89
2023/08/19 05:51:46;;;;;;;5.07;2.87;;;20.10;97.30;;;;;;4966929;28;20222;-87
2023/08/19 05:54:12;;;;;;;6.47;5.37;;;20.10;97.30;;;;;;4967022;28;20529;-88
2023/08/19 05:56:37;;;;;;;4.93;3.83;;;20.10;97.30;;;;;;4974078;28;20217;-88
2023/08/19 05:59:03;;;;;;;10.43;4.57;;;20.20;97.30;;;;;;4966546;28;20278;-87
2023/08/19 06:01:28;;;;;;;3.80;3.60;;;20.20;97.30;;;;;;4975340;28;20308;-87
2023/08/19 06:03:54;;;;;;;13.03;5.93;;;20.20;97.30;;;;;;4971787;28;20190;-88
2023/08/19 06:06:19;;;;;;;6.33;3.63;;;20.30;97.30;;;;;;4982910;28;20212;-91
2023/08/19 06:08:45;;;;;;;10.00;5.00;;;20.30;97.30;;;;;;4975026;28;20221;-87
2023/08/19 06:11:11;;;;;;;6.23;5.10;;;20.30;97.30;;;;;;4975887;28;20256;-87
2023/08/19 06:13:37;;;;;;;6.77;3.50;;;20.40;97.30;;;;;;4970064;28;20641;-88
2023/08/19 06:16:04;;;;;;;8.20;3.40;;;20.40;97.30;;;;;;4963172;28;20182;-87
2023/08/19 06:18:30;;;;;;;4.13;2.80;;;20.50;97.30;;;;;;4966660;28;20414;-88
2023/08/19 06:20:56;;;;;;;7.30;3.67;;;20.50;97.30;;;;;;4966524;28;20437;-88
2023/08/19 06:23:28;;;;;;;6.70;5.07;;;20.60;97.30;;;;;;4990852;28;20604;-88
2023/08/19 06:26:09;;;;;;;7.50;4.40;;;20.70;97.30;;;;;;4974835;28;20514;-87
2023/08/19 06:28:38;;;;;;;3.93;3.20;;;20.70;97.30;;;;;;4973990;28;20788;-87
2023/08/19 06:31:19;;;;;;;6.13;4.90;;;20.80;97.30;;;;;;4965229;28;20445;-88
2023/08/19 06:33:45;;;;;;;7.03;4.80;;;20.90;97.30;;;;;;4962749;28;20410;-87
2023/08/19 06:36:14;;;;;;;5.90;3.67;;;20.90;97.30;;;;;;4971423;28;20427;-87
2023/08/19 06:38:46;;;;;;;12.63;7.77;;;21.00;97.30;;;;;;4973524;28;20181;-89
2023/08/19 06:41:13;;;;;;;9.77;4.60;;;21.10;97.30;;;;;;4974224;28;20487;-88
2023/08/19 06:43:39;;;;;;;5.40;4.37;;;21.10;97.30;;;;;;4973935;28;20432;-88
2023/08/19 06:46:07;;;;;;;5.60;4.77;;;21.20;97.30;;;;;;4973953;28;21083;-88
2023/08/19 06:48:33;;;;;;;7.00;3.30;;;21.30;97.30;;;;;;4975300;28;20413;-87
2023/08/19 06:51:00;;;;;;;14.63;4.47;;;21.30;97.30;;;;;;4969394;28;20460;-87
2023/08/19 06:53:26;;;;;;;16.43;4.33;;;21.40;97.30;;;;;;4967272;28;20455;-88
2023/08/19 06:56:07;;;;;;;5.40;3.10;;;21.50;97.30;;;;;;4975929;28;20428;-88
2023/08/19 06:58:37;;;;;;;6.20;4.17;;;21.60;97.30;;;;;;4967638;28;20655;-87
2023/08/19 07:01:11;;;;;;;6.03;4.93;;;21.70;97.30;;;;;;4975727;28;20487;-88
2023/08/19 07:03:36;;;;;;;6.90;4.70;;;21.80;97.30;;;;;;4968804;28;20661;-88
2023/08/19 07:06:03;;;;;;;4.07;3.10;;;21.90;97.30;;;;;;4976000;28;20954;-88
2023/08/19 07:08:30;;;;;;;5.40;3.80;;;22.00;97.30;;;;;;4975051;28;20174;-88
2023/08/19 07:10:59;;;;;;;6.60;4.07;;;22.10;97.30;;;;;;4992417;28;20445;-89
2023/08/19 07:13:25;;;;;;;4.07;3.47;;;22.10;97.30;;;;;;4955709;28;20418;-89
2023/08/19 07:15:58;;;;;;;5.33;3.60;;;22.20;97.30;;;;;;4974786;28;20432;-90
2023/08/19 07:18:26;;;;;;;8.20;4.03;;;22.40;97.30;;;;;;4973651;28;20424;-91
2023/08/19 07:20:57;;;;;;;4.63;3.30;;;22.40;97.30;;;;;;4964860;28;20448;-90
2023/08/19 07:23:24;;;;;;;3.23;3.00;;;22.50;97.30;;;;;;4963821;28;20432;-89
2023/08/19 07:25:50;;;;;;;6.40;4.00;;;22.60;97.30;;;;;;4969165;28;20937;-91
2023/08/19 07:28:19;;;;;;;4.20;3.33;;;22.70;97.30;;;;;;4973380;28;20413;-89
2023/08/19 07:30:45;;;;;;;10.87;5.53;;;22.80;97.30;;;;;;4961551;28;20472;-88
2023/08/19 07:33:11;;;;;;;3.50;2.73;;;22.90;97.30;;;;;;4969938;28;20432;-89
2023/08/19 07:35:39;;;;;;;7.17;5.70;;;23.00;97.30;;;;;;4986038;28;20427;-90
2023/08/19 07:38:06;;;;;;;4.43;2.70;;;23.10;97.30;;;;;;4976530;28;20772;-89
2023/08/19 07:40:37;;;;;;;6.00;2.30;;;23.20;97.30;;;;;;4994553;28;20471;-90
2023/08/19 07:43:05;;;;;;;4.00;3.00;;;23.40;97.30;;;;;;4976546;28;20428;-89
2023/08/19 07:45:30;;;;;;;7.00;3.70;;;23.40;97.30;;;;;;4968566;28;20428;-90
2023/08/19 07:47:59;;;;;;;3.73;3.30;;;23.50;97.30;;;;;;4993997;28;20421;-90
2023/08/19 07:50:26;;;;;;;4.43;3.43;;;23.60;97.30;;;;;;4966694;28;20674;-91
2023/08/19 07:52:59;;;;;;;4.70;3.17;;;23.70;97.30;;;;;;4972987;28;20520;-89
2023/08/19 07:55:27;;;;;;;4.60;3.47;;;23.80;97.30;;;;;;4967411;28;20508;-89
2023/08/19 07:57:53;;;;;;;4.33;4.00;;;23.90;97.30;;;;;;4971957;28;20576;-89
2023/08/19 08:00:18;;;;;;;4.13;3.07;;;24.10;97.30;;;;;;4969603;28;20472;-88
2023/08/19 08:02:46;;;;;;;4.80;2.47;;;24.20;97.30;;;;;;4977310;28;20589;-90
2023/08/19 08:05:20;;;;;;;7.40;4.17;;;24.20;97.30;;;;;;4977649;28;20189;-90
2023/08/19 08:07:46;;;;;;;5.10;3.53;;;24.30;97.30;;;;;;4972745;28;20476;-91
2023/08/19 08:10:14;;;;;;;4.60;3.67;;;24.40;97.30;;;;;;4966885;28;20466;-90
2023/08/19 08:12:39;;;;;;;3.00;2.80;;;24.50;97.30;;;;;;4995068;28;20732;-90
2023/08/19 08:15:09;;;;;;;6.30;2.60;;;24.60;97.30;;;;;;4995325;28;20504;-89
2023/08/19 08:17:37;;;;;;;4.20;2.47;;;24.70;97.30;;;;;;4969643;28;20185;-89
2023/08/19 08:20:03;;;;;;;5.20;3.83;;;24.80;97.30;;;;;;4971844;28;20426;-89
2023/08/19 08:22:29;;;;;;;3.97;2.60;;;25.00;97.30;;;;;;4974343;28;20456;-86
2023/08/19 08:24:57;;;;;;;8.67;4.17;;;25.00;97.30;;;;;;4963926;28;20193;-90
2023/08/19 08:27:28;;;;;;;5.63;3.57;;;25.10;97.30;;;;;;4967864;28;20217;-89
2023/08/19 08:29:56;;;;;;;4.20;2.77;;;25.20;97.30;;;;;;4972156;28;20464;-90
2023/08/19 08:32:29;;;;;;;5.90;3.00;;;25.30;97.30;;;;;;4969589;28;20935;-90
2023/08/19 08:34:59;;;;;;;2.73;2.37;;;25.40;97.30;;;;;;4977520;28;20413;-90
2023/08/19 08:37:27;;;;;;;4.30;3.00;;;25.50;97.30;;;;;;4979141;28;20401;-90
2023/08/19 08:40:00;;;;;;;6.07;2.97;;;25.60;97.30;;;;;;4983362;28;20456;-90
2023/08/19 08:42:29;;;;;;;5.10;3.50;;;25.70;97.30;;;;;;4974482;28;20879;-91
2023/08/19 08:44:58;;;;;;;4.43;3.40;;;25.80;97.30;;;;;;4969121;28;20551;-89
2023/08/19 08:47:28;;;;;;;2.83;2.67;;;25.90;97.30;;;;;;4995282;28;20899;-89
2023/08/19 08:49:58;;;;;;;4.37;3.47;;;26.00;97.30;;;;;;4977819;28;20515;-90
2023/08/19 08:52:27;;;;;;;3.43;2.50;;;26.10;97.30;;;;;;4969438;28;20476;-90
2023/08/19 08:55:09;;;;;;;3.17;2.20;;;26.20;97.30;;;;;;4971433;28;20425;-91
2023/08/19 08:57:37;;;;;;;2.83;2.27;;;26.30;97.30;;;;;;4974417;28;20477;-91
2023/08/19 09:00:11;;;;;;;3.40;2.87;;;26.40;97.30;;;;;;4973045;28;20459;-90
2023/08/19 09:02:39;;;;;;;5.13;3.00;;;26.50;97.30;;;;;;4966327;28;20485;-90
2023/08/19 09:05:08;;;;;;;4.30;2.60;;;26.60;97.30;;;;;;4967658;28;20438;-89
2023/08/19 09:07:39;;;;;;;6.40;3.33;;;26.70;97.30;;;;;;4964830;28;20422;-92
2023/08/19 09:10:27;;;;;;;2.70;2.50;;;26.80;97.30;;;;;;4958262;28;20469;-90
2023/08/19 09:13:10;;;;;;;7.30;3.80;;;26.90;97.30;;;;;;4967567;28;20422;-90
2023/08/19 09:15:39;;;;;;;5.57;2.73;;;27.00;97.30;;;;;;4962558;28;20423;-91
2023/08/19 09:18:07;;;;;;;2.53;2.33;;;27.10;97.30;;;;;;4962649;28;20937;-91
2023/08/19 09:20:56;;;;;;;4.30;2.80;;;27.20;97.30;;;;;;4954490;28;20510;-91
2023/08/19 09:23:39;;;;;;;4.93;2.27;;;27.30;97.30;;;;;;4962289;28;20437;-91
2023/08/19 09:26:09;;;;;;;5.27;2.90;;;27.40;97.30;;;;;;4968729;28;20477;-90
2023/08/19 09:28:37;;;;;;;3.80;2.77;;;27.40;97.30;;;;;;4966672;28;20450;-91
2023/08/19 09:31:20;;;;;;;4.43;3.10;;;27.60;97.30;;;;;;4974489;28;20441;-90
2023/08/19 09:33:48;;;;;;;2.50;2.03;;;27.60;97.30;;;;;;4965841;28;20682;-90
2023/08/19 09:36:17;;;;;;;3.47;2.20;;;27.70;97.30;;;;;;4964932;28;20459;-92
2023/08/19 09:38:51;;;;;;;3.27;2.07;;;27.80;97.30;;;;;;4957392;28;20421;-90
2023/08/19 09:41:19;;;;;;;4.67;2.30;;;27.90;97.30;;;;;;4973313;28;20496;-91
2023/08/19 09:43:48;;;;;;;2.30;1.60;;;28.00;97.30;;;;;;4974773;28;20472;-90
2023/08/19 09:46:18;;;;;;;4.80;2.93;;;28.10;97.30;;;;;;4965062;28;20481;-91
2023/08/19 09:49:20;;;;;;;3.80;2.67;;;28.20;97.30;;;;;;4966729;28;20799;-89
2023/08/19 09:52:00;;;;;;;5.37;3.10;;;28.30;95.40;;;;;;4964008;28;20528;-90
2023/08/19 09:54:29;;;;;;;2.40;2.17;;;28.40;95.70;;;;;;4971662;28;20516;-90
2023/08/19 09:56:58;;;;;;;4.00;1.90;;;28.50;95.30;;;;;;4963035;28;20415;-90
2023/08/19 09:59:39;;;;;;;1.90;1.70;;;28.60;94.10;;;;;;4963325;28;20480;-90
2023/08/19 10:02:11;;;;;;;4.33;3.10;;;28.70;93.80;;;;;;4974111;28;20548;-90
2023/08/19 10:04:39;;;;;;;2.97;2.30;;;28.80;93.90;;;;;;4973000;28;20425;-90
2023/08/19 10:07:22;;;;;;;2.97;1.43;;;28.90;93.60;;;;;;4973121;28;20581;-90
2023/08/19 10:09:50;;;;;;;1.67;1.60;;;28.90;93.40;;;;;;4966730;28;20457;-91
2023/08/19 10:12:19;;;;;;;2.40;2.00;;;29.00;93.10;;;;;;4965434;28;20701;-90
2023/08/19 10:14:49;;;;;;;4.40;1.93;;;29.10;92.70;;;;;;4989219;23;20511;-88
2023/08/19 10:17:14;;;;;;;2.30;1.60;;;29.20;92.60;;;;;;4966450;28;20786;-87
2023/08/19 10:19:47;;;;;;;1.40;1.30;;;29.20;92.50;;;;;;4964943;28;20483;-87
2023/08/19 10:22:15;;;;;;;2.60;1.73;;;29.30;92.60;;;;;;4975837;28;20186;-87
2023/08/19 10:24:42;;;;;;;1.77;1.57;;;29.30;92.40;;;;;;4973124;28;20444;-87
2023/08/19 10:27:16;;;;;;;2.03;1.90;;;29.40;92.70;;;;;;4965411;28;20416;-87
2023/08/19 10:29:45;;;;;;;1.77;1.70;;;29.50;93.20;;;;;;4961260;28;20605;-86
2023/08/19 10:32:28;;;;;;;1.90;1.80;;;29.60;91.80;;;;;;4976893;28;20457;-87
2023/08/19 10:35:08;;;;;;;1.63;1.50;;;29.60;92.30;;;;;;4964160;28;21006;-87
2023/08/19 10:37:41;;;;;;;2.23;1.93;;;29.70;91.30;;;;;;4970514;28;20435;-87
2023/08/19 10:40:11;;;;;;;1.60;1.50;;;29.70;91.40;;;;;;4975908;28;20424;-87
2023/08/19 10:42:37;;;;;;;1.80;1.70;;;29.80;91.60;;;;;;4983492;28;20432;-87
2023/08/19 10:45:05;;;;;;;3.33;2.30;;;29.90;92.00;;;;;;4981762;28;20453;-87
2023/08/19 10:47:31;;;;;;;2.33;1.30;;;29.90;91.90;;;;;;4976015;28;20510;-86
2023/08/19 10:50:01;;;;;;;2.13;1.70;;;30.00;92.00;;;;;;4980916;28;20542;-87
2023/08/19 10:52:28;;;;;;;4.47;1.90;;;30.00;91.60;;;;;;5006174;28;20177;-88
2023/08/19 10:54:56;;;;;;;2.07;1.50;;;30.10;91.10;;;;;;4976270;28;20745;-88
2023/08/19 10:57:23;;;;;;;2.70;2.50;;;30.20;90.70;;;;;;4969739;28;20433;-86
2023/08/19 11:00:00;;;;;;;4.13;2.40;;;30.30;91.20;;;;;;4977580;28;20508;-85
2023/08/19 11:02:27;;;;;;;2.10;1.50;;;30.40;90.80;;;;;;4969787;28;20432;-87
2023/08/19 11:04:53;;;;;;;1.30;1.10;;;30.50;90.40;;;;;;4973327;28;20440;-87
2023/08/19 11:07:20;;;;;;;2.00;1.90;;;30.60;87.30;;;;;;4974906;28;20490;-88
2023/08/19 11:09:48;;;;;;;3.37;1.87;;;30.70;88.70;;;;;;4993180;28;20479;-88
2023/08/19 11:12:19;;;;;;;2.03;1.87;;;30.70;87.00;;;;;;4976324;28;20496;-87
2023/08/19 11:14:49;;;;;;;8.60;2.40;;;30.80;88.30;;;;;;4954899;28;20549;-88
2023/08/19 11:17:16;;;;;;;2.37;2.23;;;30.80;88.70;;;;;;4955452;28;20441;-87
2023/08/19 11:19:42;;;;;;;1.97;1.87;;;30.90;88.40;;;;;;4975037;28;20437;-87
2023/08/19 11:22:15;;;;;;;2.33;2.17;;;30.90;87.90;;;;;;4976267;28;20421;-88
2023/08/19 11:24:40;;;;;;;3.23;2.37;;;30.90;84.30;;;;;;4968921;28;20757;-85
2023/08/19 11:27:07;;;;;;;1.53;1.47;;;31.00;84.80;;;;;;4971412;28;20452;-88
2023/08/19 11:29:36;;;;;;;5.63;2.17;;;31.10;86.20;;;;;;4970192;28;20207;-87
2023/08/19 11:32:01;;;;;;;7.13;2.40;;;31.10;84.50;;;;;;4980389;28;20490;-88
2023/08/19 11:34:28;;;;;;;1.77;1.67;;;31.20;86.10;;;;;;4974184;28;20456;-87
2023/08/19 11:36:54;;;;;;;2.37;2.20;;;31.30;86.60;;;;;;4972348;28;20277;-87
2023/08/19 11:39:20;;;;;;;4.00;1.53;;;31.40;86.80;;;;;;4974011;28;20523;-85
2023/08/19 11:41:47;;;;;;;1.57;1.53;;;31.50;86.60;;;;;;4996864;28;20198;-86
2023/08/19 11:44:13;;;;;;;2.47;2.20;;;31.50;86.50;;;;;;4970850;28;20206;-88
2023/08/19 11:46:38;;;;;;;1.47;1.30;;;31.60;87.30;;;;;;4989089;28;20435;-88
2023/08/19 11:49:07;;;;;;;2.27;2.10;;;31.70;84.50;;;;;;4971155;28;20201;-88
2023/08/19 11:51:32;;;;;;;1.83;1.63;;;31.80;82.90;;;;;;4968817;28;20273;-88
2023/08/19 11:54:06;;;;;;;2.60;1.83;;;31.80;83.90;;;;;;4975632;28;20527;-87
2023/08/19 11:56:52;;;;;;;3.33;1.90;;;31.90;84.70;;;;;;4994791;28;20214;-87
2023/08/19 11:59:26;;;;;;;1.90;1.80;;;32.00;84.20;;;;;;4974334;28;20882;-88
2023/08/19 12:01:52;;;;;;;1.60;1.40;;;32.00;83.50;;;;;;4967850;28;20440;-88
2023/08/19 12:04:18;;;;;;;1.80;1.70;;;32.10;82.70;;;;;;4973677;28;20448;-84
2023/08/19 12:06:46;;;;;;;3.73;2.43;;;32.10;82.50;;;;;;4974205;28;20199;-87
2023/08/19 12:09:11;;;;;;;1.67;1.60;;;32.20;82.80;;;;;;4962341;28;20210;-88
2023/08/19 12:11:38;;;;;;;2.53;1.97;;;32.20;81.70;;;;;;4975087;28;20999;-87
2023/08/19 12:14:05;;;;;;;1.80;1.57;;;32.30;81.50;;;;;;4998494;28;20289;-88
2023/08/19 12:16:31;;;;;;;2.27;2.07;;;32.40;83.00;;;;;;4977219;28;20483;-88
2023/08/19 12:18:57;;;;;;;4.30;1.93;;;32.50;82.90;;;;;;4995473;28;20789;-86
2023/08/19 12:21:24;;;;;;;2.40;2.27;;;32.60;83.90;;;;;;4966729;28;20420;-87
2023/08/19 12:23:49;;;;;;;2.50;1.73;;;32.60;82.30;;;;;;4968221;28;20193;-86
2023/08/19 12:26:15;;;;;;;1.53;1.43;;;32.70;81.30;;;;;;4973007;28;20794;-88
2023/08/19 12:28:40;;;;;;;3.20;2.43;;;32.70;80.60;;;;;;4974777;28;20239;-89
2023/08/19 12:31:06;;;;;;;3.47;2.67;;;32.80;78.80;;;;;;4972421;28;20178;-88
2023/08/19 12:33:34;;;;;;;2.73;1.70;;;32.80;80.90;;;;;;4963618;28;20174;-88
2023/08/19 12:35:59;;;;;;;3.40;1.90;;;32.90;80.80;;;;;;4970370;28;20226;-88
2023/08/19 12:38:25;;;;;;;2.97;1.90;;;33.00;81.00;;;;;;4965131;28;20470;-87
2023/08/19 12:40:50;;;;;;;1.10;1.03;;;33.10;82.60;;;;;;4965981;28;20190;-87
2023/08/19 12:43:16;;;;;;;2.83;1.93;;;33.20;81.00;;;;;;4976812;28;20233;-87
2023/08/19 12:45:42;;;;;;;4.60;2.27;;;33.20;80.80;;;;;;4990341;28;20667;-87
2023/08/19 12:48:09;;;;;;;1.37;0.93;;;33.30;81.30;;;;;;4971503;28;20776;-86
2023/08/19 12:50:35;;;;;;;1.00;0.90;;;33.30;79.70;;;;;;4964836;28;20831;-88
2023/08/19 12:53:00;;;;;;;1.43;1.40;;;33.40;78.50;;;;;;4975167;28;20422;-86
2023/08/19 12:55:30;;;;;;;1.50;1.40;;;33.40;79.40;;;;;;4998090;28;20203;-87
2023/08/19 12:57:56;;;;;;;1.73;1.70;;;33.50;78.30;;;;;;4967054;28;20175;-85
2023/08/19 13:00:23;;;;;;;1.33;1.30;;;33.50;78.30;;;;;;4967167;28;20426;-87
2023/08/19 13:02:50;;;;;;;1.83;1.73;;;33.60;79.40;;;;;;4977644;28;20957;-88
2023/08/19 13:05:18;;;;;;;2.53;1.93;;;33.70;79.30;;;;;;4984960;28;20493;-87
2023/08/19 13:08:21;;;;;;;1.43;1.37;;;33.80;81.30;;;;;;4973720;28;20428;-87
2023/08/19 13:11:30;;;;;;;2.00;1.10;;;33.90;77.10;;;;;;4973739;28;20464;-87
2023/08/19 13:14:11;;;;;;;1.10;1.00;;;33.90;76.50;;;;;;4964474;28;20429;-87
2023/08/19 13:17:20;;;;;;;1.23;1.13;;;34.10;76.50;;;;;;4975689;28;20433;-86
2023/08/19 13:20:22;;;;;;;2.03;1.73;;;34.10;77.40;;;;;;4980546;28;20456;-87
2023/08/19 13:22:51;;;;;;;1.20;1.10;;;34.20;76.40;;;;;;4958288;28;20422;-87
2023/08/19 13:25:20;;;;;;;4.43;2.53;;;34.30;77.00;;;;;;4975786;28;20460;-88
2023/08/19 13:28:01;;;;;;;2.30;1.20;;;34.30;75.20;;;;;;4976398;28;20420;-87
2023/08/19 13:31:00;;;;;;;1.40;1.30;;;34.40;75.40;;;;;;4909491;28;20900;-87
2023/08/19 13:33:30;;;;;;;2.60;1.80;;;34.50;77.20;;;;;;4972466;28;20823;-87
2023/08/19 13:35:59;;;;;;;1.23;1.13;;;34.60;74.90;;;;;;4968709;28;20449;-87
2023/08/19 13:38:50;;;;;;;2.03;1.90;;;34.60;73.00;;;;;;4965200;28;20430;-87
2023/08/19 13:41:32;;;;;;;1.40;1.30;;;34.70;75.70;;;;;;4973553;28;20438;-86
2023/08/19 13:44:00;;;;;;;1.63;1.53;;;34.70;75.40;;;;;;4974383;28;20428;-87
2023/08/19 13:46:57;;;;;;;1.93;1.03;;;34.70;75.30;;;;;;4970455;28;20431;-87
2023/08/19 13:49:30;;;;;;;1.40;1.20;;;34.70;75.40;;;;;;4987346;28;20960;-84
2023/08/19 13:52:32;;;;;;;;;;;;;;;;;;;;;
2023/08/19 13:55:02;;;;;;;2.40;1.60;;;34.80;76.60;;;;;;4983515;28;20456;-85
2023/08/19 13:58:01;;;;;;;2.00;1.37;;;34.90;75.90;;;;;;4972288;28;20422;-86
2023/08/19 14:00:30;;;;;;;1.43;1.33;;;35.00;75.70;;;;;;4981523;28;20413;-85
2023/08/19 14:03:11;;;;;;;3.57;1.80;;;35.10;77.40;;;;;;4967372;28;20520;-86
2023/08/19 14:05:52;;;;;;;2.40;1.90;;;35.20;76.30;;;;;;4971163;28;20826;-88
2023/08/19 14:08:21;;;;;;;2.00;1.90;;;35.20;76.80;;;;;;4975806;28;20915;-87
2023/08/19 14:10:52;;;;;;;1.80;1.70;;;35.20;76.80;;;;;;4977102;28;20551;-87
2023/08/19 14:13:23;;;;;;;1.77;1.73;;;35.30;75.60;;;;;;4965021;28;20445;-87
2023/08/19 14:15:51;;;;;;;1.30;1.13;;;35.30;77.20;;;;;;4989496;28;20469;-87
2023/08/19 14:18:21;;;;;;;1.40;1.30;;;35.30;76.60;;;;;;4990901;28;20463;-88
2023/08/19 14:20:50;;;;;;;2.53;2.10;;;35.40;76.90;;;;;;4972660;28;20432;-88
2023/08/19 14:23:21;;;;;;;1.90;1.80;;;35.40;74.90;;;;;;4973075;28;20433;-88
2023/08/19 14:25:50;;;;;;;2.17;1.63;;;35.40;75.70;;;;;;4965269;28;20460;-88
2023/08/19 14:28:42;;;;;;;1.77;1.67;;;35.50;74.80;;;;;;4973184;28;20432;-88
2023/08/19 14:32:00;;;;;;;1.60;1.40;;;35.50;73.30;;;;;;4982272;28;20425;-88
2023/08/19 14:34:41;;;;;;;4.40;2.90;;;35.60;75.20;;;;;;4960426;28;20671;-87
2023/08/19 14:37:30;;;;;;;2.20;1.40;;;35.60;75.70;;;;;;4983477;28;20884;-88
2023/08/19 14:40:03;;;;;;;1.40;1.30;;;35.70;74.00;;;;;;4874356;29;20525;-86
2023/08/19 14:42:31;;;;;;;1.30;1.10;;;35.80;73.60;;;;;;4870435;29;20426;-87
2023/08/19 14:48:02;;;;;;;1.57;1.27;;;36.00;75.40;;;;;;4863624;29;20440;-87
2023/08/19 14:50:32;;;;;;;3.23;1.87;;;36.00;71.90;;;;;;4866489;29;20478;-89
2023/08/19 14:53:42;;;;;;;;;;;;;;;;;;;;;
2023/08/19 14:56:30;;;;;;;1.63;1.37;;;36.00;71.70;;;;;;4817877;29;20800;-88
2023/08/19 14:59:01;;;;;;;1.77;1.37;;;36.00;73.00;;;;;;4877924;29;20440;-88
2023/08/19 15:04:40;;;;;;;1.27;0.97;;;36.00;70.40;;;;;;4895385;29;20866;-88
2023/08/19 15:07:32;;;;;;;2.13;1.40;;;36.00;69.30;;;;;;4878892;29;20420;-89
2023/08/19 15:10:00;;;;;;;1.10;1.00;;;36.00;68.60;;;;;;4880335;29;20548;-86
2023/08/19 15:12:51;;;;;;;1.13;1.10;;;36.00;70.00;;;;;;4880719;29;20429;-87
2023/08/19 15:15:31;;;;;;;2.60;1.60;;;36.10;69.80;;;;;;4917320;29;20550;-85
2023/08/19 15:18:19;;;;;;;2.70;2.10;;;36.20;68.40;;;;;;4904455;29;20491;-88
2023/08/19 15:20:51;;;;;;;2.23;2.10;;;36.20;69.90;;;;;;4897156;29;20419;-88
2023/08/19 15:23:21;;;;;;;1.67;1.47;;;36.30;68.40;;;;;;4912024;29;20459;-89
2023/08/19 15:29:12;;;;;;;1.40;1.37;;;36.40;70.50;;;;;;4914702;29;20513;-87
2023/08/19 15:31:41;;;;;;;1.70;1.60;;;36.40;71.50;;;;;;4904743;29;20423;-88
2023/08/19 15:34:12;;;;;;;2.87;2.23;;;36.30;73.00;;;;;;4953538;28;20822;-88
2023/08/19 15:37:14;;;;;;;1.73;1.70;;;36.10;73.80;;;;;;4968736;28;20417;-88
2023/08/19 15:40:03;;;;;;;3.60;1.97;;;35.90;72.70;;;;;;4976395;28;20461;-88
2023/08/19 15:42:39;;;;;;;1.33;1.23;;;35.80;72.20;;;;;;4957998;28;20475;-88
2023/08/19 15:45:11;;;;;;;1.20;1.00;;;35.80;73.50;;;;;;4974456;28;20452;-85
2023/08/19 15:47:42;;;;;;;1.30;1.20;;;35.90;74.80;;;;;;4976667;28;20416;-87
2023/08/19 15:50:22;;;;;;;1.10;1.03;;;36.00;71.50;;;;;;4974452;28;20484;-85
2023/08/19 15:52:51;;;;;;;1.17;1.07;;;36.10;72.80;;;;;;4978178;28;20456;-89
2023/08/19 15:55:19;;;;;;;2.60;1.27;;;36.20;71.70;;;;;;4980849;28;20449;-85
2023/08/19 15:58:01;;;;;;;2.60;2.13;;;36.40;72.10;;;;;;4975727;28;20424;-88
2023/08/19 16:00:30;;;;;;;0.87;0.83;;;36.40;72.70;;;;;;4974241;28;20421;-85
2023/08/19 16:03:02;;;;;;;1.90;1.80;;;36.30;72.80;;;;;;4965276;28;20437;-86
2023/08/19 16:05:31;;;;;;;1.70;1.60;;;36.20;69.80;;;;;;4964140;28;20444;-85
2023/08/19 16:08:11;;;;;;;1.60;1.50;;;36.10;70.40;;;;;;4974141;28;21119;-88
2023/08/19 16:10:42;;;;;;;1.57;1.47;;;36.00;72.10;;;;;;4971412;28;20469;-85
2023/08/19 16:13:10;;;;;;;1.90;1.47;;;35.80;72.80;;;;;;4968650;28;21001;-90
2023/08/19 16:15:37;;;;;;;2.40;1.43;;;35.70;74.30;;;;;;4984980;23;20519;-63
2023/08/19 16:18:03;;;;;;;1.50;1.40;;;35.50;75.60;;;;;;4963306;28;20460;-63
2023/08/19 16:20:28;;;;;;;2.00;1.90;;;35.20;74.30;;;;;;4951783;28;20454;-63
2023/08/19 16:22:54;;;;;;;5.27;2.63;;;35.00;75.60;;;;;;4953137;28;20520;-63
2023/08/19 16:25:19;;;;;;;1.10;1.00;;;34.80;77.80;;;;;;4968424;28;20194;-63
2023/08/19 16:27:45;;;;;;;2.90;2.20;;;34.70;75.80;;;;;;4969404;28;20632;-63
2023/08/19 16:30:11;;;;;;;2.00;1.57;;;34.60;76.20;;;;;;4968756;28;20626;-63
2023/08/19 16:32:36;;;;;;;3.63;3.40;;;34.50;76.40;;;;;;4970274;28;20178;-63
2023/08/19 16:35:03;;;;;;;6.60;2.30;;;34.30;77.10;;;;;;4969615;28;20440;-63
2023/08/19 16:37:28;;;;;;;4.10;1.70;;;34.20;80.40;;;;;;4970183;28;20234;-63
2023/08/19 16:39:54;;;;;;;12.23;1.17;;;34.00;80.20;;;;;;4970437;28;20433;-63
2023/08/19 16:42:21;;;;;;;2.73;2.10;;;33.80;82.90;;;;;;4968782;28;20220;-63
2023/08/19 16:44:47;;;;;;;2.17;2.00;;;33.70;82.00;;;;;;4973161;28;20202;-63
2023/08/19 16:47:13;;;;;;;1.10;1.00;;;33.70;83.00;;;;;;4977794;28;20866;-63
2023/08/19 16:49:38;;;;;;;1.17;1.10;;;33.70;82.60;;;;;;4971039;28;21029;-63
2023/08/19 16:52:04;;;;;;;1.63;1.10;;;33.60;82.60;;;;;;4963032;28;20214;-63
2023/08/19 16:54:29;;;;;;;2.30;1.20;;;33.40;83.00;;;;;;4971092;28;20189;-63
2023/08/19 16:56:55;;;;;;;1.83;1.77;;;33.20;82.90;;;;;;4971115;28;20690;-63
2023/08/19 16:59:20;;;;;;;6.00;1.60;;;33.00;84.50;;;;;;4960059;28;20627;-63
2023/08/19 17:01:46;;;;;;;1.40;1.37;;;32.80;84.70;;;;;;4970845;28;20269;-63
2023/08/19 17:04:11;;;;;;;1.53;1.33;;;32.60;85.50;;;;;;4952462;28;20608;-63
2023/08/19 17:06:37;;;;;;;6.63;3.50;;;32.50;85.70;;;;;;4962922;28;20639;-63
2023/08/19 17:09:04;;;;;;;7.83;4.57;;;32.30;86.90;;;;;;4969403;28;20190;-63
2023/08/19 17:11:30;;;;;;;11.70;7.70;;;32.20;87.20;;;;;;4969835;28;20194;-63
2023/08/19 17:13:55;;;;;;;19.10;8.80;;;32.10;88.10;;;;;;4967559;28;20430;-63
2023/08/19 17:16:22;;;;;;;11.23;7.13;;;31.90;88.50;;;;;;4976313;28;20729;-63